Time;durP1;ratioP1;P1;durP2;ratioP2;P2;SDS_P1;SDS_P2;PMS_P1;PMS_P2;Temp;Humidity;BMP_temperature;BMP_pressure;BME280_temperature;BME280_humidity;BME280_pressure;Samples;Min_cycle;Max_cycle;Signal;HPM_P1;HPM_P2
2022/08/03 00:01:53;;;;;;;1.80;1.43;;;;;;;15.93;76.05;97922.13;7615449;23;20695;-68
2022/08/03 00:04:56;;;;;;;2.27;2.03;;;;;;;15.80;76.18;97922.50;7576171;23;20210;-68
2022/08/03 00:07:59;;;;;;;2.97;2.00;;;;;;;15.71;76.66;97925.22;7583406;23;20217;-68
2022/08/03 00:11:05;;;;;;;1.50;1.40;;;;;;;15.70;76.75;97926.19;7552387;23;20295;-67
2022/08/03 00:14:09;;;;;;;1.30;1.20;;;;;;;15.67;76.88;97919.34;7575618;23;20209;-68
2022/08/03 00:17:13;;;;;;;1.50;1.40;;;;;;;15.70;76.85;97919.06;7575966;23;20776;-68
2022/08/03 00:20:15;;;;;;;1.70;1.50;;;;;;;15.67;76.77;97921.19;7551023;23;20733;-68
2022/08/03 00:23:17;;;;;;;1.30;1.20;;;;;;;15.65;77.07;97925.81;7575886;23;20623;-68
2022/08/03 00:26:22;;;;;;;1.77;1.67;;;;;;;15.63;77.26;97925.13;7575370;23;20524;-68
2022/08/03 00:29:24;;;;;;;1.20;1.10;;;;;;;15.62;77.31;97926.94;7575735;23;20217;-68
2022/08/03 00:32:26;;;;;;;1.40;1.30;;;;;;;15.65;77.40;97924.00;7576572;23;20208;-68
2022/08/03 00:35:29;;;;;;;1.60;1.50;;;;;;;15.67;77.21;97922.00;7592755;23;20723;-68
2022/08/03 00:38:51;;;;;;;1.50;1.10;;;;;;;15.64;77.13;97917.00;7616215;23;20216;-68
2022/08/03 00:41:53;;;;;;;1.83;1.40;;;;;;;15.60;77.39;97918.28;7590183;23;20212;-69
2022/08/03 00:44:55;;;;;;;1.30;1.20;;;;;;;15.53;77.63;97925.16;7615272;23;20216;-68
2022/08/03 00:47:58;;;;;;;1.40;1.30;;;;;;;15.44;77.51;97921.56;7614906;23;20704;-68
2022/08/03 00:51:01;;;;;;;1.40;1.30;;;;;;;15.30;77.91;97921.19;7614563;23;20196;-68
2022/08/03 00:54:03;;;;;;;2.90;1.80;;;;;;;15.16;78.42;97924.34;7615215;23;20180;-67
2022/08/03 00:57:06;;;;;;;1.47;1.37;;;;;;;15.14;78.75;97922.66;7615380;23;20187;-68
2022/08/03 01:00:11;;;;;;;1.63;1.53;;;;;;;15.13;78.88;97914.84;7616691;23;20515;-68
2022/08/03 01:03:13;;;;;;;1.60;1.50;;;;;;;15.13;79.27;97923.66;7613347;23;20215;-67
2022/08/03 01:06:18;;;;;;;2.17;1.23;;;;;;;15.19;78.80;97922.22;7614665;23;20660;-67
2022/08/03 01:09:38;;;;;;;1.40;1.30;;;;;;;15.05;78.96;97928.84;7588826;23;20238;-68
2022/08/03 01:12:45;;;;;;;2.17;1.33;;;;;;;15.01;80.15;97930.13;7614505;23;20216;-68
2022/08/03 01:15:47;;;;;;;1.33;1.23;;;;;;;15.02;79.94;97921.16;7615129;23;20641;-67
2022/08/03 01:19:01;;;;;;;1.37;1.27;;;;;;;14.94;79.78;97926.38;7615638;23;20208;-67
2022/08/03 01:22:40;;;;;;;2.07;1.30;;;;;;;14.84;80.26;97922.91;7615265;23;20220;-67
2022/08/03 01:26:04;;;;;;;1.70;1.40;;;;;;;14.81;80.32;97912.56;7614779;23;20223;-67
2022/08/03 01:29:28;;;;;;;1.17;1.13;;;;;;;14.81;80.70;97912.56;7615113;23;20209;-68
2022/08/03 01:32:56;;;;;;;1.93;1.50;;;;;;;14.94;80.75;97912.25;7588975;23;20290;-68
2022/08/03 01:36:11;;;;;;;1.53;1.40;;;;;;;14.95;80.19;97914.75;7564045;23;20597;-68
2022/08/03 01:39:15;;;;;;;2.10;1.73;;;;;;;14.86;80.86;97912.97;7588987;23;20625;-68
2022/08/03 01:42:20;;;;;;;1.63;1.53;;;;;;;14.87;81.03;97905.84;7614826;23;20637;-68
2022/08/03 01:45:23;;;;;;;2.13;1.40;;;;;;;14.92;81.23;97908.88;7615253;23;20261;-68
2022/08/03 01:48:26;;;;;;;1.40;1.30;;;;;;;14.91;80.88;97907.19;7614938;23;20727;-68
2022/08/03 01:51:30;;;;;;;1.70;1.60;;;;;;;14.85;81.20;97911.28;7614292;23;20287;-68
2022/08/03 01:54:54;;;;;;;2.03;1.70;;;;;;;14.86;81.47;97905.00;7614845;23;20204;-68
2022/08/03 01:58:01;;;;;;;1.60;1.50;;;;;;;14.83;81.29;97909.75;7564633;23;20224;-68
2022/08/03 02:01:08;;;;;;;1.73;1.63;;;;;;;14.69;81.56;97900.41;7566271;23;20204;-68
2022/08/03 02:04:14;;;;;;;1.53;1.43;;;;;;;14.65;82.40;97901.69;7614008;23;20628;-68
2022/08/03 02:07:17;;;;;;;1.97;1.50;;;;;;;14.65;82.23;97896.38;7564776;23;20735;-67
2022/08/03 02:10:20;;;;;;;3.93;1.80;;;;;;;14.61;82.56;97903.78;7614405;23;20588;-68
2022/08/03 02:13:38;;;;;;;1.60;1.50;;;;;;;14.57;82.71;97898.91;7593818;23;20215;-68
2022/08/03 02:16:44;;;;;;;2.10;1.70;;;;;;;14.62;82.56;97888.69;7590268;23;20553;-68
2022/08/03 02:19:47;;;;;;;1.90;1.80;;;;;;;14.62;83.21;97894.00;7614670;23;20284;-68
2022/08/03 02:22:49;;;;;;;1.83;1.73;;;;;;;14.64;83.03;97894.69;7614065;23;20633;-68
2022/08/03 02:25:56;;;;;;;2.03;1.90;;;;;;;14.65;83.05;97893.72;7617092;23;20419;-68
2022/08/03 02:29:05;;;;;;;2.33;1.60;;;;;;;14.66;83.16;97890.94;7592172;23;20561;-68
2022/08/03 02:32:15;;;;;;;2.20;1.90;;;;;;;14.60;83.32;97896.78;7616841;23;20237;-68
2022/08/03 02:35:21;;;;;;;2.23;2.03;;;;;;;14.48;83.58;97891.78;7617879;23;20231;-68
2022/08/03 02:38:30;;;;;;;2.00;1.80;;;;;;;14.36;84.26;97891.94;7616856;23;20791;-68
2022/08/03 02:41:37;;;;;;;1.97;1.80;;;;;;;14.37;85.14;97890.09;7591497;23;20224;-68
2022/08/03 02:44:46;;;;;;;2.10;1.83;;;;;;;14.42;84.81;97892.34;7616744;23;20279;-68
2022/08/03 02:47:51;;;;;;;2.27;2.10;;;;;;;14.49;84.98;97899.59;7590428;23;20511;-68
2022/08/03 02:50:58;;;;;;;1.73;1.63;;;;;;;14.58;84.38;97897.91;7616311;23;20216;-68
2022/08/03 02:54:02;;;;;;;2.10;1.60;;;;;;;14.64;84.45;97889.38;7618139;23;20551;-68
2022/08/03 02:57:08;;;;;;;1.53;1.43;;;;;;;14.58;84.28;97904.06;7615911;23;20280;-68
2022/08/03 03:00:11;;;;;;;1.97;1.77;;;;;;;14.58;84.36;97903.22;7589891;23;20263;-68
2022/08/03 03:03:29;;;;;;;1.80;1.70;;;;;;;14.54;84.10;97900.03;7573293;23;20229;-67
2022/08/03 03:06:45;;;;;;;4.33;2.30;;;;;;;14.50;84.46;97906.59;7595609;23;20284;-68
2022/08/03 03:09:49;;;;;;;2.00;1.80;;;;;;;14.54;84.93;97907.16;7616666;23;20209;-68
2022/08/03 03:12:54;;;;;;;1.50;1.40;;;;;;;14.52;84.68;97909.94;7616467;23;20520;-68
2022/08/03 03:16:03;;;;;;;2.37;2.17;;;;;;;14.50;84.64;97903.94;7590903;23;20219;-68
2022/08/03 03:19:11;;;;;;;2.03;1.93;;;;;;;14.48;84.80;97907.72;7615354;23;20263;-68
2022/08/03 03:22:21;;;;;;;2.20;2.00;;;;;;;14.41;84.93;97912.75;7592024;23;20267;-68
2022/08/03 03:25:23;;;;;;;1.80;1.70;;;;;;;14.40;84.88;97905.78;7616643;23;20215;-68
2022/08/03 03:28:26;;;;;;;2.40;2.20;;;;;;;14.45;84.87;97913.31;7616436;23;20669;-68
2022/08/03 03:31:28;;;;;;;1.93;1.73;;;;;;;14.45;84.96;97914.16;7616408;23;20208;-68
2022/08/03 03:34:30;;;;;;;2.40;2.20;;;;;;;14.43;84.73;97917.94;7616152;23;20295;-68
2022/08/03 03:37:34;;;;;;;2.00;1.80;;;;;;;14.38;84.86;97921.81;7616230;23;20216;-68
2022/08/03 03:40:36;;;;;;;2.00;1.90;;;;;;;14.36;85.15;97918.47;7616409;23;20838;-68
2022/08/03 03:43:39;;;;;;;1.90;1.80;;;;;;;14.36;85.57;97920.28;7616026;23;20575;-68
2022/08/03 03:46:41;;;;;;;2.30;2.20;;;;;;;14.33;85.16;97926.72;7590338;23;20317;-68
2022/08/03 03:49:44;;;;;;;3.07;1.90;;;;;;;14.31;85.24;97922.50;7616131;23;20744;-68
2022/08/03 03:52:46;;;;;;;2.10;2.00;;;;;;;14.27;85.17;97923.78;7590581;23;20339;-68
2022/08/03 03:55:48;;;;;;;2.40;2.20;;;;;;;14.27;85.33;97921.97;7615927;23;20212;-68
2022/08/03 03:59:03;;;;;;;2.20;2.07;;;;;;;14.27;85.43;97926.44;7616021;23;20220;-68
2022/08/03 04:02:07;;;;;;;2.93;2.17;;;;;;;14.33;85.30;97928.53;7564016;23;20291;-68
2022/08/03 04:11:57;;;;;;;2.10;2.00;;;;;;;14.27;85.84;97931.75;7616242;23;20236;-68
2022/08/03 04:15:01;;;;;;;3.00;1.83;;;;;;;14.29;85.30;97929.78;7590980;23;20294;-68
2022/08/03 04:18:05;;;;;;;2.10;2.00;;;;;;;14.34;85.24;97932.88;7613899;23;20181;-68
2022/08/03 04:21:11;;;;;;;2.03;1.90;;;;;;;14.34;85.34;97938.19;7565406;23;20311;-68
2022/08/03 04:24:14;;;;;;;3.07;2.57;;;;;;;14.42;85.43;97940.16;7590728;23;20620;-68
2022/08/03 04:27:22;;;;;;;1.90;1.80;;;;;;;14.48;85.01;97942.22;7613634;23;20197;-68
2022/08/03 04:30:27;;;;;;;2.50;2.30;;;;;;;14.44;84.79;97944.34;7588502;23;20209;-68
2022/08/03 04:33:32;;;;;;;2.10;2.00;;;;;;;14.47;84.79;97937.94;7589211;23;20211;-68
2022/08/03 04:36:43;;;;;;;3.27;2.07;;;;;;;14.54;84.49;97950.50;7590315;23;20213;-68
2022/08/03 04:39:48;;;;;;;2.07;1.97;;;;;;;14.59;84.39;97950.91;7589607;23;20224;-68
2022/08/03 04:42:54;;;;;;;2.23;2.13;;;;;;;14.58;84.75;97946.56;7588565;23;20271;-68
2022/08/03 04:45:58;;;;;;;2.37;2.17;;;;;;;14.57;84.37;97947.56;7614469;23;20208;-68
2022/08/03 04:49:01;;;;;;;2.00;1.90;;;;;;;14.52;84.44;97947.13;7613356;23;20212;-69
2022/08/03 04:52:06;;;;;;;2.10;2.00;;;;;;;14.51;84.45;97950.78;7612707;23;20216;-70
2022/08/03 04:55:08;;;;;;;3.27;2.20;;;;;;;14.51;84.57;97949.94;7615747;23;20264;-70
2022/08/03 04:58:11;;;;;;;1.87;1.77;;;;;;;14.50;84.32;97954.41;7614615;23;20216;-70
2022/08/03 05:01:14;;;;;;;2.50;2.30;;;;;;;14.51;84.94;97952.59;7614447;23;20292;-70
2022/08/03 05:04:17;;;;;;;2.10;2.00;;;;;;;14.53;84.82;97953.28;7589028;23;20267;-70
2022/08/03 05:07:19;;;;;;;2.40;2.20;;;;;;;14.54;84.97;97957.63;7587806;23;20209;-70
2022/08/03 05:10:26;;;;;;;2.50;2.30;;;;;;;14.61;84.49;97954.25;7614976;23;20704;-69
2022/08/03 05:13:28;;;;;;;2.43;2.23;;;;;;;14.57;84.71;97958.19;7614001;23;20212;-70
2022/08/03 05:16:30;;;;;;;2.50;2.30;;;;;;;14.64;84.78;97961.09;7614517;23;20232;-69
2022/08/03 05:19:32;;;;;;;2.50;2.00;;;;;;;14.71;84.76;97952.41;7614293;23;20219;-69
2022/08/03 05:22:34;;;;;;;2.13;1.97;;;;;;;14.75;84.60;97953.81;7613860;23;20216;-69
2022/08/03 05:25:36;;;;;;;7.30;2.40;;;;;;;14.78;84.60;97964.16;7588657;23;20680;-70
2022/08/03 05:28:41;;;;;;;2.70;2.13;;;;;;;14.90;84.64;97966.66;7613785;23;20212;-70
2022/08/03 05:31:56;;;;;;;2.57;2.37;;;;;;;14.92;84.28;97962.88;7590366;23;20533;-70
2022/08/03 05:34:58;;;;;;;2.40;2.20;;;;;;;14.94;84.38;97960.06;7588193;23;20271;-70
2022/08/03 05:38:21;;;;;;;2.37;2.20;;;;;;;14.98;84.78;97970.25;7614470;23;20295;-70
2022/08/03 05:41:29;;;;;;;2.60;2.40;;;;;;;14.98;84.64;97964.09;7613857;23;20215;-70
2022/08/03 05:44:38;;;;;;;2.37;2.17;;;;;;;15.10;85.11;97969.13;7614548;23;20211;-70
2022/08/03 05:47:43;;;;;;;2.40;2.20;;;;;;;15.20;84.62;97965.59;7588057;23;20239;-70
2022/08/03 05:50:45;;;;;;;5.30;2.20;;;;;;;15.28;84.84;97968.34;7612029;23;20272;-70
2022/08/03 05:53:47;;;;;;;2.60;2.40;;;;;;;15.35;84.82;97969.47;7613964;23;20212;-70
2022/08/03 05:56:49;;;;;;;2.57;2.20;;;;;;;15.42;84.60;97967.91;7613186;23;20239;-70
2022/08/03 05:59:51;;;;;;;2.93;2.30;;;;;;;15.52;84.58;97963.38;7614660;23;20213;-70
2022/08/03 06:02:59;;;;;;;2.43;2.00;;;;;;;15.60;84.36;97965.31;7591388;23;20223;-70
2022/08/03 06:06:01;;;;;;;2.23;2.03;;;;;;;15.67;84.41;97963.75;7615597;23;20680;-69
2022/08/03 06:09:03;;;;;;;2.33;2.13;;;;;;;15.70;84.64;97960.78;7616405;23;20540;-69
2022/08/03 06:12:06;;;;;;;2.60;2.40;;;;;;;15.77;84.57;97959.22;7589092;23;20453;-69
2022/08/03 06:15:15;;;;;;;2.10;2.00;;;;;;;15.86;84.61;97959.19;7616030;23;20266;-69
2022/08/03 06:18:17;;;;;;;2.90;2.70;;;;;;;15.97;84.58;97958.09;7614427;23;20513;-69
2022/08/03 06:21:19;;;;;;;2.40;2.20;;;;;;;16.07;84.29;97961.53;7615793;23;20478;-70
2022/08/03 06:24:23;;;;;;;2.40;2.20;;;;;;;16.18;84.21;97957.81;7618474;23;20278;-70
2022/08/03 06:27:25;;;;;;;2.60;2.40;;;;;;;16.32;83.98;97967.13;7615509;23;20216;-69
2022/08/03 06:30:38;;;;;;;2.40;2.20;;;;;;;16.44;83.65;97961.41;7615404;23;20692;-70
2022/08/03 06:33:40;;;;;;;2.53;2.37;;;;;;;16.60;83.25;97960.69;7615392;23;20280;-70
2022/08/03 06:37:02;;;;;;;2.57;2.37;;;;;;;16.77;82.79;97965.19;7589840;23;20656;-69
2022/08/03 06:40:05;;;;;;;3.77;2.20;;;;;;;16.97;82.47;97968.50;7614639;23;20208;-69
2022/08/03 06:43:08;;;;;;;2.30;2.00;;;;;;;17.18;81.83;97962.81;7615225;23;20235;-70
2022/08/03 06:46:13;;;;;;;2.43;2.23;;;;;;;17.40;81.01;97964.94;7591202;23;20215;-69
2022/08/03 06:49:15;;;;;;;2.57;2.37;;;;;;;17.62;81.05;97972.44;7616649;23;20227;-70
2022/08/03 06:52:17;;;;;;;2.17;1.97;;;;;;;18.01;79.49;97967.41;7589126;23;20208;-70
2022/08/03 06:55:39;;;;;;;2.20;2.10;;;;;;;18.38;78.01;97969.63;7615341;23;20237;-70
2022/08/03 06:58:43;;;;;;;2.23;2.13;;;;;;;18.73;76.82;97963.19;7615502;23;20240;-69
2022/08/03 07:01:51;;;;;;;2.50;2.30;;;;;;;19.07;76.01;97972.84;7615645;23;20216;-70
2022/08/03 07:04:53;;;;;;;2.10;2.00;;;;;;;19.43;74.54;97968.78;7564630;23;20217;-70
2022/08/03 07:08:00;;;;;;;2.47;2.27;;;;;;;19.80;73.43;97968.16;7591001;23;20216;-70
2022/08/03 07:11:02;;;;;;;1.93;1.83;;;;;;;20.20;71.76;97960.91;7589354;23;20212;-70
2022/08/03 07:14:05;;;;;;;1.67;1.57;;;;;;;20.60;70.48;97974.06;7615086;23;20209;-71
2022/08/03 07:17:07;;;;;;;1.87;1.77;;;;;;;20.89;69.37;97972.50;7615658;23;20295;-70
2022/08/03 07:20:14;;;;;;;1.93;1.83;;;;;;;21.19;68.05;97966.22;7615151;23;20264;-71
2022/08/03 07:23:16;;;;;;;2.43;2.13;;;;;;;21.62;67.15;97969.13;7616514;23;20212;-70
2022/08/03 07:26:20;;;;;;;2.13;1.90;;;;;;;22.04;64.96;97969.28;7589027;23;20219;-69
2022/08/03 07:29:22;;;;;;;4.80;1.93;;;;;;;22.38;63.53;97960.56;7565228;23;20329;-69
2022/08/03 07:32:25;;;;;;;2.00;1.90;;;;;;;22.73;62.18;97963.41;7587389;23;20219;-69
2022/08/03 07:35:27;;;;;;;2.10;1.90;;;;;;;23.26;59.46;97958.50;7615093;23;20209;-70
2022/08/03 07:38:29;;;;;;;2.47;1.70;;;;;;;23.86;57.51;97960.50;7589524;23;20325;-70
2022/08/03 07:41:31;;;;;;;1.90;1.80;;;;;;;24.10;57.04;97959.16;7613888;23;20709;-69
2022/08/03 07:44:33;;;;;;;1.53;1.30;;;;;;;24.47;54.58;97952.44;7615771;23;20609;-70
2022/08/03 07:47:35;;;;;;;2.33;1.70;;;;;;;24.98;51.78;97950.88;7616698;23;20288;-71
2022/08/03 07:50:37;;;;;;;1.50;1.40;;;;;;;25.57;50.28;97949.97;7589377;23;20375;-70
2022/08/03 07:53:39;;;;;;;1.60;1.47;;;;;;;25.99;49.63;97955.91;7614678;23;20291;-70
2022/08/03 07:56:48;;;;;;;1.77;1.67;;;;;;;26.18;48.21;97944.16;7615532;23;20204;-71
2022/08/03 07:59:50;;;;;;;2.10;1.20;;;;;;;26.57;46.74;97950.44;7590308;23;20236;-70
2022/08/03 08:03:12;;;;;;;3.47;1.70;;;;;;;26.95;43.66;97945.78;7614569;23;20205;-70
2022/08/03 08:06:15;;;;;;;1.75;1.30;;;;;;;27.28;41.40;97948.22;7614295;23;20176;-71
2022/08/03 08:09:17;;;;;;;3.92;1.58;;;;;;;27.61;40.08;97953.38;7615079;23;20738;-70
2022/08/03 08:12:19;;;;;;;2.22;1.40;;;;;;;27.75;40.12;97951.34;7614269;23;20184;-71
2022/08/03 08:15:21;;;;;;;1.55;1.30;;;;;;;28.03;40.77;97953.50;7588757;23;20218;-71
2022/08/03 08:18:23;;;;;;;1.33;1.20;;;;;;;28.38;41.18;97953.69;7615125;23;20240;-71
2022/08/03 08:21:25;;;;;;;1.48;1.38;;;;;;;28.02;39.95;97949.97;7614329;23;20583;-70
2022/08/03 08:24:48;;;;;;;1.52;1.10;;;;;;;28.23;38.45;97954.13;7614733;23;20299;-71
2022/08/03 08:27:52;;;;;;;1.60;1.40;;;;;;;28.35;37.56;97946.84;7615032;23;20524;-70
2022/08/03 08:31:14;;;;;;;1.25;1.08;;;;;;;28.85;36.73;97947.38;7615226;23;20607;-70
2022/08/03 08:34:16;;;;;;;2.95;1.15;;;;;;;28.90;37.07;97947.53;7615046;23;20664;-70
2022/08/03 08:37:18;;;;;;;1.40;1.30;;;;;;;29.17;35.67;97947.91;7614915;23;20562;-69
2022/08/03 08:40:21;;;;;;;3.10;1.52;;;;;;;29.23;34.62;97943.44;7588554;23;20208;-70
2022/08/03 08:43:23;;;;;;;1.40;1.30;;;;;;;29.77;36.26;97950.41;7589268;23;20216;-70
2022/08/03 08:46:26;;;;;;;1.10;1.10;;;;;;;29.38;36.19;97942.97;7589234;23;20212;-70
2022/08/03 08:49:31;;;;;;;1.60;1.50;;;;;;;29.71;36.70;97951.38;7589905;23;20238;-70
2022/08/03 08:52:34;;;;;;;2.10;1.02;;;;;;;29.94;35.08;97943.16;7611138;23;20205;-69
2022/08/03 08:55:38;;;;;;;1.40;1.30;;;;;;;30.30;33.60;97957.53;7619626;23;20810;-70
2022/08/03 08:59:01;;;;;;;2.53;1.52;;;;;;;30.32;33.83;97950.78;7615520;23;20295;-70
2022/08/03 10:01:55;;;;;;;1.83;1.20;;;;;;;33.16;26.31;97919.25;4020708;23;22382;-69
2022/08/03 10:04:57;;;;;;;2.25;1.45;;;;;;;33.20;25.06;97911.34;7542560;23;20223;-70
2022/08/03 10:07:59;;;;;;;3.70;1.45;;;;;;;33.61;24.19;97917.97;7543026;23;20217;-71
2022/08/03 10:11:01;;;;;;;1.50;1.40;;;;;;;33.74;23.16;97916.66;7540297;23;20213;-70
2022/08/03 10:14:05;;;;;;;1.27;1.17;;;;;;;33.70;23.17;97913.63;7540116;23;20214;-71
2022/08/03 10:17:08;;;;;;;1.40;1.30;;;;;;;33.65;22.35;97906.19;7541812;23;20234;-70
2022/08/03 10:20:11;;;;;;;1.35;1.25;;;;;;;33.82;22.72;97907.97;7540746;23;20213;-70
2022/08/03 10:23:15;;;;;;;4.13;1.20;;;;;;;33.85;23.55;97900.03;7540868;23;20213;-71
2022/08/03 10:26:21;;;;;;;1.00;0.90;;;;;;;34.60;24.25;97898.63;7542586;23;20304;-71
2022/08/03 10:29:27;;;;;;;2.47;1.42;;;;;;;33.73;22.57;97885.72;7549185;23;20611;-70
2022/08/03 10:32:51;;;;;;;2.90;1.27;;;;;;;33.98;22.62;97894.06;7540345;23;20237;-70
2022/08/03 10:35:58;;;;;;;3.50;1.10;;;;;;;33.38;22.81;97890.97;7540532;23;20640;-70
2022/08/03 10:39:01;;;;;;;1.35;1.25;;;;;;;33.73;22.33;97893.94;7517749;23;20289;-69
2022/08/03 10:42:16;;;;;;;1.73;1.15;;;;;;;33.81;22.09;97893.44;7537600;23;20230;-70
2022/08/03 10:45:22;;;;;;;1.85;1.10;;;;;;;33.96;21.86;97881.72;7540713;23;20182;-70
2022/08/03 10:48:25;;;;;;;1.40;1.10;;;;;;;34.12;21.04;97880.69;7543534;23;20499;-70
2022/08/03 10:51:30;;;;;;;4.22;1.40;;;;;;;33.78;22.77;97882.19;7542270;23;20214;-70
2022/08/03 10:54:36;;;;;;;1.20;1.20;;;;;;;33.91;23.47;97870.75;7540971;23;20288;-71
2022/08/03 10:57:44;;;;;;;1.45;1.20;;;;;;;33.99;24.15;97873.78;7544947;23;20604;-70
2022/08/03 11:00:49;;;;;;;2.75;1.20;;;;;;;33.77;22.07;97869.59;7543856;23;20212;-71
2022/08/03 11:03:51;;;;;;;1.00;1.00;;;;;;;33.98;21.86;97863.09;7508466;23;20208;-71
2022/08/03 11:07:23;;;;;;;1.30;1.20;;;;;;;34.08;19.95;97865.88;7580017;23;20548;-70
2022/08/03 11:10:30;;;;;;;1.65;1.10;;;;;;;33.95;18.24;97858.97;7503445;23;20219;-70
2022/08/03 11:13:32;;;;;;;1.15;1.02;;;;;;;34.12;18.97;97855.19;7504037;23;20235;-70
2022/08/03 11:16:37;;;;;;;2.33;1.02;;;;;;;34.33;19.53;97854.19;7504784;23;20222;-70
2022/08/03 11:19:46;;;;;;;1.10;1.00;;;;;;;34.78;19.44;97861.66;7502194;23;20605;-70
2022/08/03 11:23:00;;;;;;;3.55;1.10;;;;;;;35.46;20.11;97862.13;7503263;23;20762;-70
2022/08/03 11:26:21;;;;;;;1.13;1.10;;;;;;;36.19;18.85;97851.41;7502849;23;20214;-70
2022/08/03 11:29:30;;;;;;;1.10;1.10;;;;;;;35.76;19.23;97855.72;7479295;23;20261;-69
2022/08/03 11:32:43;;;;;;;1.10;1.00;;;;;;;36.18;19.08;97850.56;7456976;23;20214;-69
2022/08/03 11:36:01;;;;;;;0.90;0.90;;;;;;;35.51;19.27;97851.13;7503305;23;20281;-69
2022/08/03 11:39:13;;;;;;;2.20;1.10;;;;;;;36.39;19.18;97844.97;7479434;23;20290;-70
2022/08/03 11:42:23;;;;;;;2.17;1.30;;;;;;;35.91;18.60;97841.94;7481006;23;20280;-69
2022/08/03 11:45:25;;;;;;;3.90;1.20;;;;;;;35.95;18.32;97843.00;7512061;23;20213;-70
2022/08/03 11:48:37;;;;;;;0.80;0.80;;;;;;;35.97;19.00;97835.31;7579734;23;20276;-69
2022/08/03 11:51:39;;;;;;;1.65;1.08;;;;;;;36.22;18.81;97842.63;7577653;23;20237;-70
2022/08/03 11:54:42;;;;;;;1.25;1.08;;;;;;;36.72;18.55;97843.41;7579297;23;20260;-71
2022/08/03 11:57:46;;;;;;;1.00;0.95;;;;;;;37.04;18.34;97835.38;7580206;23;20217;-71
2022/08/03 12:01:11;;;;;;;2.15;1.15;;;;;;;36.92;17.39;97830.28;7577515;23;20232;-71
2022/08/03 12:04:15;;;;;;;0.80;0.80;;;;;;;37.00;18.04;97828.81;7545087;23;20213;-70
2022/08/03 12:07:17;;;;;;;1.70;1.02;;;;;;;36.38;18.52;97829.59;7554335;23;20235;-70
2022/08/03 12:10:46;;;;;;;1.52;0.80;;;;;;;35.85;17.78;97838.38;7579119;23;20236;-69
2022/08/03 12:13:50;;;;;;;1.30;1.20;;;;;;;35.41;17.94;97824.53;7578924;23;20264;-70
2022/08/03 12:17:12;;;;;;;1.27;1.00;;;;;;;35.08;18.05;97831.44;7579741;23;20213;-71
2022/08/03 12:20:24;;;;;;;0.90;0.90;;;;;;;35.23;16.96;97827.03;7578566;23;20219;-69
2022/08/03 12:23:37;;;;;;;1.10;1.10;;;;;;;35.73;17.47;97817.84;7579461;23;20582;-70
2022/08/03 12:26:48;;;;;;;1.20;1.05;;;;;;;35.95;17.82;97815.53;7579665;23;20209;-70
2022/08/03 12:30:00;;;;;;;3.35;1.20;;;;;;;35.49;17.88;97814.91;7579168;23;20241;-69
2022/08/03 12:33:13;;;;;;;4.13;1.05;;;;;;;35.07;18.11;97813.34;7579837;23;20215;-69
2022/08/03 12:36:15;;;;;;;0.85;0.85;;;;;;;35.13;17.85;97795.78;7580262;23;20669;-69
2022/08/03 12:39:22;;;;;;;1.92;1.10;;;;;;;35.38;18.37;97796.81;7578642;23;20191;-69
2022/08/03 12:42:35;;;;;;;2.80;1.10;;;;;;;35.40;18.40;97802.84;7578480;23;20646;-69
2022/08/03 12:45:37;;;;;;;0.90;0.90;;;;;;;36.15;16.63;97792.59;7578711;23;20593;-69
2022/08/03 12:48:58;;;;;;;1.55;1.30;;;;;;;35.57;17.80;97797.84;7576802;23;20721;-69
2022/08/03 12:52:01;;;;;;;4.60;1.10;;;;;;;36.17;16.58;97793.97;7577627;23;20268;-69
2022/08/03 12:55:20;;;;;;;1.38;1.00;;;;;;;36.33;15.92;97783.72;7579963;23;20220;-70
2022/08/03 12:58:32;;;;;;;1.77;0.90;;;;;;;37.15;16.78;97783.81;7578718;23;20240;-69
2022/08/03 13:01:47;;;;;;;1.20;1.10;;;;;;;37.31;16.92;97779.81;7579846;23;20209;-69
2022/08/03 13:04:56;;;;;;;0.98;0.98;;;;;;;37.73;16.62;97783.72;7578406;23;20220;-70
2022/08/03 13:07:58;;;;;;;0.95;0.95;;;;;;;37.47;16.49;97783.19;7576321;23;20216;-70
2022/08/03 13:11:21;;;;;;;1.35;1.10;;;;;;;36.86;16.79;97775.56;7578247;23;20239;-71
2022/08/03 13:14:23;;;;;;;3.58;1.10;;;;;;;35.65;17.44;97785.44;7578471;23;20213;-70
2022/08/03 13:17:26;;;;;;;2.15;1.23;;;;;;;34.89;17.84;97785.66;7578952;23;20339;-70
2022/08/03 13:20:28;;;;;;;2.13;1.13;;;;;;;35.57;17.43;97781.34;7577726;23;20217;-70
2022/08/03 13:23:30;;;;;;;1.02;0.80;;;;;;;36.04;17.16;97769.03;7578200;23;20284;-69
2022/08/03 13:26:32;;;;;;;1.30;0.88;;;;;;;36.93;16.13;97770.56;7578074;23;20236;-70
2022/08/03 13:29:34;;;;;;;2.75;1.23;;;;;;;37.46;15.67;97760.31;7552877;23;20216;-70
2022/08/03 13:32:36;;;;;;;3.28;1.38;;;;;;;37.59;16.46;97765.13;7575506;23;20212;-70
2022/08/03 13:35:38;;;;;;;1.00;0.98;;;;;;;36.72;15.96;97766.38;7578621;23;20245;-70
2022/08/03 13:38:40;;;;;;;1.33;1.10;;;;;;;36.53;15.72;97758.81;7579299;23;20212;-70
2022/08/03 13:41:43;;;;;;;1.30;1.20;;;;;;;37.48;16.36;97757.28;7578383;23;20205;-69
2022/08/03 13:44:45;;;;;;;1.10;1.10;;;;;;;38.58;15.09;97759.56;7577091;23;20614;-70
2022/08/03 13:47:48;;;;;;;1.00;0.90;;;;;;;39.42;14.66;97764.94;7579509;23;20287;-70
2022/08/03 13:50:50;;;;;;;1.60;1.00;;;;;;;39.83;14.00;97756.59;7576398;23;20224;-71
2022/08/03 13:53:52;;;;;;;1.17;1.00;;;;;;;40.30;13.76;97755.28;7576536;23;20597;-71
2022/08/03 13:56:54;;;;;;;2.45;1.10;;;;;;;40.19;13.25;97740.00;7576520;23;20220;-71
2022/08/03 14:00:22;;;;;;;1.30;1.20;;;;;;;40.46;13.27;97736.31;7576920;23;20205;-70
2022/08/03 14:03:29;;;;;;;1.42;1.10;;;;;;;40.50;14.76;97740.94;7576528;23;20217;-71
2022/08/03 14:06:31;;;;;;;2.30;1.13;;;;;;;41.26;13.65;97724.22;7576637;23;20292;-70
2022/08/03 14:09:33;;;;;;;2.65;1.20;;;;;;;41.21;14.48;97732.72;7579231;23;20221;-70
2022/08/03 14:12:35;;;;;;;2.03;1.20;;;;;;;42.64;13.30;97738.25;7577628;23;20567;-70
2022/08/03 14:15:37;;;;;;;3.42;1.20;;;;;;;43.33;11.89;97735.25;7576621;23;20208;-70
2022/08/03 14:18:41;;;;;;;1.30;1.20;;;;;;;45.38;11.15;97731.00;7577908;23;20449;-70
2022/08/03 14:21:44;;;;;;;1.23;1.15;;;;;;;45.63;10.99;97730.97;7580812;23;20209;-67
2022/08/03 14:25:02;;;;;;;1.58;1.20;;;;;;;45.81;9.65;97732.38;7581239;23;20302;-69
2022/08/03 14:28:04;;;;;;;1.80;1.13;;;;;;;47.17;10.26;97735.84;7554487;23;20216;-69
2022/08/03 14:31:06;;;;;;;1.35;1.25;;;;;;;48.07;8.31;97726.41;7579087;23;20217;-70
2022/08/03 14:34:28;;;;;;;1.70;1.40;;;;;;;48.50;8.23;97729.31;7580247;23;20223;-70
2022/08/03 14:37:32;;;;;;;1.10;1.10;;;;;;;48.68;8.47;97716.44;7577922;23;20213;-69
2022/08/03 14:40:34;;;;;;;1.27;1.10;;;;;;;47.02;9.26;97719.09;7579627;23;20220;-70
2022/08/03 14:43:36;;;;;;;2.85;1.40;;;;;;;47.72;9.15;97712.44;7580103;23;20680;-70
2022/08/03 14:46:38;;;;;;;1.40;1.27;;;;;;;48.46;9.01;97711.63;7587476;23;20275;-70
2022/08/03 14:49:41;;;;;;;1.95;1.02;;;;;;;48.44;8.38;97712.00;7586258;23;20658;-70
2022/08/03 14:53:03;;;;;;;1.23;1.15;;;;;;;48.13;9.05;97709.31;7579192;23;20217;-69
2022/08/03 14:56:06;;;;;;;2.15;1.20;;;;;;;48.15;8.33;97710.59;7579962;23;20221;-69
2022/08/03 14:59:11;;;;;;;2.22;1.15;;;;;;;47.18;9.32;97717.09;7580700;23;20288;-69
2022/08/03 15:52:54;;;;;;;2.75;1.30;;;;;;;49.07;8.52;97680.72;4008801;23;22105;-69
2022/08/03 15:55:57;;;;;;;1.00;0.90;;;;;;;48.74;9.28;97687.75;7614268;23;20692;-70
2022/08/03 15:59:00;;;;;;;1.30;1.20;;;;;;;48.74;8.71;97693.34;7613646;23;20550;-68
2022/08/03 16:02:14;;;;;;;2.83;1.40;;;;;;;47.48;9.25;97689.47;7622058;23;20208;-69
2022/08/03 16:05:16;;;;;;;1.85;1.30;;;;;;;46.05;10.06;97684.03;7620283;23;20212;-69
2022/08/03 16:08:19;;;;;;;1.35;1.25;;;;;;;42.99;11.99;97677.88;7614933;23;20217;-69
2022/08/03 16:11:21;;;;;;;1.27;1.10;;;;;;;42.92;12.81;97683.16;7589726;23;20220;-68
2022/08/03 16:14:23;;;;;;;2.35;1.30;;;;;;;41.21;14.29;97671.75;7617027;23;20517;-70
2022/08/03 16:17:39;;;;;;;1.40;1.30;;;;;;;37.98;18.34;97675.84;7591745;23;20219;-69
2022/08/03 16:20:43;;;;;;;1.70;1.40;;;;;;;35.80;20.51;97675.53;7615033;23;20725;-68
2022/08/03 16:23:46;;;;;;;1.92;1.10;;;;;;;34.46;22.35;97674.63;7614633;23;21027;-68
2022/08/03 16:26:48;;;;;;;2.42;1.30;;;;;;;33.20;22.79;97667.88;7589194;23;20221;-69
2022/08/03 16:29:50;;;;;;;1.67;1.50;;;;;;;32.41;24.63;97671.56;7614349;23;20243;-69
2022/08/03 16:32:53;;;;;;;1.40;1.25;;;;;;;32.08;25.42;97661.72;7614594;23;20216;-70
2022/08/03 16:35:55;;;;;;;2.63;1.45;;;;;;;31.36;27.27;97666.72;7613923;23;20680;-69